Time;durP1;ratioP1;P1;durP2;ratioP2;P2;SDS_P1;SDS_P2;PMS_P1;PMS_P2;Temp;Humidity;BMP_temperature;BMP_pressure;BME280_temperature;BME280_humidity;BME280_pressure;Samples;Min_cycle;Max_cycle;Signal;HPM_P1;HPM_P2
2022/11/29 00:01:18;;;;;;;;;;;21.10;40.00;;;;;;484524;246;1592;-44
2022/11/29 00:03:20;;;;;;;;;;;21.00;39.90;;;;;;484127;246;1246;-44
2022/11/29 00:05:21;;;;;;;;;;;21.00;39.90;;;;;;484468;246;1221;-45
2022/11/29 00:07:22;;;;;;;;;;;21.00;40.00;;;;;;484571;246;1230;-45
2022/11/29 00:09:25;;;;;;;;;;;21.10;40.00;;;;;;484531;246;1370;-44
2022/11/29 00:13:44;;;;;;;;;;;21.10;40.00;;;;;;484553;246;1194;-44
2022/11/29 00:15:46;;;;;;;;;;;21.10;40.00;;;;;;484213;246;1226;-45
2022/11/29 00:17:47;;;;;;;;;;;21.00;40.00;;;;;;484514;246;1343;-44
2022/11/29 00:19:48;;;;;;;;;;;21.10;40.00;;;;;;484620;246;1289;-44
2022/11/29 00:21:50;;;;;;;;;;;21.30;39.70;;;;;;484330;245;1231;-45
2022/11/29 00:23:51;;;;;;;;;;;21.50;39.20;;;;;;484624;246;1804;-44
2022/11/29 00:25:52;;;;;;;;;;;21.70;38.90;;;;;;484145;246;1324;-45
2022/11/29 00:27:54;;;;;;;;;;;21.80;38.70;;;;;;484144;246;1453;-44
2022/11/29 00:29:55;;;;;;;;;;;21.90;38.40;;;;;;484273;246;2172;-44
2022/11/29 00:31:56;;;;;;;;;;;22.00;38.20;;;;;;484564;246;1265;-44
2022/11/29 00:33:58;;;;;;;;;;;22.10;38.10;;;;;;484147;246;1278;-44
2022/11/29 00:36:00;;;;;;;;;;;22.20;38.00;;;;;;484525;246;1709;-44
2022/11/29 00:38:00;;;;;;;;;;;22.20;37.80;;;;;;484067;246;1914;-44
2022/11/29 00:40:01;;;;;;;;;;;22.20;37.70;;;;;;484361;246;1362;-45
2022/11/29 00:42:03;;;;;;;;;;;22.30;37.70;;;;;;484205;246;1227;-45
2022/11/29 00:44:04;;;;;;;;;;;22.30;37.50;;;;;;484513;246;1380;-45
2022/11/29 00:46:05;;;;;;;;;;;22.40;37.50;;;;;;484256;246;1210;-44
2022/11/29 00:48:07;;;;;;;;;;;22.40;37.40;;;;;;484264;246;1384;-44
2022/11/29 00:50:08;;;;;;;;;;;22.40;37.40;;;;;;484398;246;2180;-45
2022/11/29 00:52:09;;;;;;;;;;;22.50;37.40;;;;;;484228;246;1218;-45
2022/11/29 00:54:11;;;;;;;;;;;22.50;37.30;;;;;;484146;246;1339;-45
2022/11/29 00:56:12;;;;;;;;;;;22.50;37.20;;;;;;484143;246;1251;-45
2022/11/29 00:58:13;;;;;;;;;;;22.60;37.20;;;;;;484091;246;1486;-45
2022/11/29 01:00:15;;;;;;;;;;;22.60;37.20;;;;;;484159;246;1414;-45
2022/11/29 01:02:16;;;;;;;;;;;22.60;37.10;;;;;;484299;246;1586;-45
2022/11/29 01:04:17;;;;;;;;;;;22.70;37.10;;;;;;484483;246;1324;-45
2022/11/29 01:06:19;;;;;;;;;;;22.70;37.10;;;;;;484394;246;1346;-45
2022/11/29 01:08:20;;;;;;;;;;;22.70;37.00;;;;;;484567;246;1351;-44
2022/11/29 01:10:21;;;;;;;;;;;22.70;37.00;;;;;;484563;246;2148;-45
2022/11/29 01:12:23;;;;;;;;;;;22.80;37.00;;;;;;484169;246;1266;-44
2022/11/29 01:14:24;;;;;;;;;;;22.80;37.00;;;;;;484022;246;1300;-44
2022/11/29 01:16:25;;;;;;;;;;;22.80;36.90;;;;;;484579;246;1491;-45
2022/11/29 01:18:27;;;;;;;;;;;22.80;36.90;;;;;;484253;246;1347;-45
2022/11/29 01:20:28;;;;;;;;;;;22.90;36.90;;;;;;484290;246;1223;-45
2022/11/29 01:22:29;;;;;;;;;;;22.80;36.80;;;;;;484559;246;1243;-45
2022/11/29 01:24:31;;;;;;;;;;;22.90;36.80;;;;;;484344;245;1215;-45
2022/11/29 01:26:32;;;;;;;;;;;22.90;36.80;;;;;;484082;246;1323;-45
2022/11/29 01:28:33;;;;;;;;;;;22.90;36.80;;;;;;484024;246;1787;-44
2022/11/29 01:30:34;;;;;;;;;;;22.90;36.80;;;;;;484217;246;2169;-45
2022/11/29 01:32:36;;;;;;;;;;;22.90;36.80;;;;;;484115;246;1682;-45
2022/11/29 01:34:37;;;;;;;;;;;22.90;36.80;;;;;;484353;246;1527;-45
2022/11/29 01:36:38;;;;;;;;;;;22.90;36.70;;;;;;484477;246;1389;-45
2022/11/29 01:38:41;;;;;;;;;;;23.00;36.70;;;;;;484068;246;1241;-45
2022/11/29 01:40:41;;;;;;;;;;;23.00;36.70;;;;;;484118;246;2078;-44
2022/11/29 01:42:42;;;;;;;;;;;23.00;36.70;;;;;;484250;246;1438;-44
2022/11/29 01:44:44;;;;;;;;;;;23.00;36.70;;;;;;484093;246;1554;-44
2022/11/29 01:46:45;;;;;;;;;;;23.00;36.70;;;;;;484053;246;1426;-45
2022/11/29 01:48:46;;;;;;;;;;;23.00;36.60;;;;;;484239;246;1287;-45
2022/11/29 01:50:48;;;;;;;;;;;23.00;36.60;;;;;;484460;246;2180;-45
2022/11/29 01:52:49;;;;;;;;;;;23.00;36.60;;;;;;484290;246;1134;-44
2022/11/29 01:54:50;;;;;;;;;;;23.10;36.60;;;;;;484389;246;1223;-44
2022/11/29 01:56:52;;;;;;;;;;;23.10;36.60;;;;;;484262;242;1241;-45
2022/11/29 01:58:53;;;;;;;;;;;23.10;36.50;;;;;;484292;246;1515;-45
2022/11/29 02:00:54;;;;;;;;;;;23.10;36.50;;;;;;484650;246;1186;-45
2022/11/29 02:02:56;;;;;;;;;;;23.10;36.60;;;;;;484236;246;1447;-44
2022/11/29 02:04:57;;;;;;;;;;;23.10;36.50;;;;;;484135;246;1220;-45
2022/11/29 02:06:58;;;;;;;;;;;23.10;36.50;;;;;;484280;246;1326;-44
2022/11/29 02:09:00;;;;;;;;;;;23.10;36.50;;;;;;484257;236;1224;-45
2022/11/29 02:11:01;;;;;;;;;;;23.10;36.50;;;;;;484298;246;2156;-44
2022/11/29 02:13:02;;;;;;;;;;;23.10;36.50;;;;;;484286;246;1291;-45
2022/11/29 02:15:05;;;;;;;;;;;23.10;36.50;;;;;;484140;246;1397;-45
2022/11/29 02:17:06;;;;;;;;;;;23.20;36.50;;;;;;484085;246;1605;-45
2022/11/29 02:19:07;;;;;;;;;;;23.20;36.50;;;;;;484442;246;1294;-44
2022/11/29 02:21:08;;;;;;;;;;;23.20;36.50;;;;;;484622;246;1204;-45
2022/11/29 02:23:10;;;;;;;;;;;23.20;36.50;;;;;;484029;246;1238;-45
2022/11/29 02:25:11;;;;;;;;;;;23.20;36.50;;;;;;484619;246;1246;-44
2022/11/29 02:27:12;;;;;;;;;;;23.20;36.50;;;;;;484355;246;1171;-44
2022/11/29 02:29:14;;;;;;;;;;;23.20;36.50;;;;;;484151;246;1218;-45
2022/11/29 02:31:15;;;;;;;;;;;23.30;36.50;;;;;;484277;246;2176;-45
2022/11/29 02:33:16;;;;;;;;;;;23.20;36.50;;;;;;484144;246;1250;-44
2022/11/29 02:35:18;;;;;;;;;;;23.20;36.50;;;;;;484356;246;1311;-45
2022/11/29 02:37:19;;;;;;;;;;;23.20;36.40;;;;;;484208;246;1230;-44
2022/11/29 02:39:20;;;;;;;;;;;23.20;36.40;;;;;;484630;246;1188;-45
2022/11/29 02:41:22;;;;;;;;;;;23.20;36.40;;;;;;484123;246;1349;-45
2022/11/29 02:43:23;;;;;;;;;;;23.30;36.40;;;;;;484392;246;1340;-44
2022/11/29 02:45:24;;;;;;;;;;;23.20;36.60;;;;;;484072;246;1206;-44
2022/11/29 02:47:26;;;;;;;;;;;23.10;36.70;;;;;;484415;246;1209;-44
2022/11/29 02:49:27;;;;;;;;;;;23.00;37.00;;;;;;484207;246;1238;-44
2022/11/29 02:51:28;;;;;;;;;;;22.80;37.20;;;;;;484126;246;2196;-45
2022/11/29 02:53:30;;;;;;;;;;;22.60;37.60;;;;;;484359;246;1249;-45
2022/11/29 02:55:31;;;;;;;;;;;22.40;37.90;;;;;;484167;246;1252;-44
2022/11/29 02:57:32;;;;;;;;;;;22.30;38.10;;;;;;484640;246;1221;-44
2022/11/29 02:59:34;;;;;;;;;;;22.20;38.20;;;;;;484430;246;1208;-44
2022/11/29 03:01:35;;;;;;;;;;;22.10;38.40;;;;;;484260;246;1209;-44
2022/11/29 03:03:36;;;;;;;;;;;22.10;38.60;;;;;;484245;246;1182;-44
2022/11/29 03:05:38;;;;;;;;;;;22.00;38.70;;;;;;484313;246;1191;-44
2022/11/29 03:07:39;;;;;;;;;;;21.90;38.90;;;;;;484394;246;1177;-44
2022/11/29 03:09:41;;;;;;;;;;;21.90;39.00;;;;;;484452;246;1249;-44
2022/11/29 03:11:42;;;;;;;;;;;21.80;39.10;;;;;;484131;246;2206;-44
2022/11/29 03:13:43;;;;;;;;;;;21.80;39.20;;;;;;484189;246;1326;-44
2022/11/29 03:15:44;;;;;;;;;;;21.80;39.20;;;;;;484220;246;1264;-44
2022/11/29 03:17:46;;;;;;;;;;;22.00;39.00;;;;;;484433;246;1425;-44
2022/11/29 03:19:47;;;;;;;;;;;22.10;38.50;;;;;;484223;246;1229;-44
2022/11/29 03:21:49;;;;;;;;;;;22.30;38.20;;;;;;484346;246;1200;-44
2022/11/29 03:23:50;;;;;;;;;;;22.40;38.10;;;;;;484200;246;1360;-44
2022/11/29 03:25:52;;;;;;;;;;;22.40;38.00;;;;;;484511;246;1577;-44
2022/11/29 03:27:53;;;;;;;;;;;22.30;38.10;;;;;;484452;246;1472;-44
2022/11/29 03:29:54;;;;;;;;;;;22.10;38.40;;;;;;484148;246;1253;-44
2022/11/29 03:31:55;;;;;;;;;;;22.00;38.60;;;;;;484267;246;2172;-44
2022/11/29 03:33:57;;;;;;;;;;;21.90;38.90;;;;;;484229;246;1373;-44
2022/11/29 03:35:58;;;;;;;;;;;21.90;38.90;;;;;;484215;246;1245;-44
2022/11/29 03:37:59;;;;;;;;;;;21.80;39.10;;;;;;484525;246;1266;-44
2022/11/29 03:40:00;;;;;;;;;;;21.70;39.20;;;;;;484440;246;1980;-44
2022/11/29 03:42:02;;;;;;;;;;;21.60;39.30;;;;;;484487;246;1315;-44
2022/11/29 03:44:03;;;;;;;;;;;21.60;39.40;;;;;;484381;246;1220;-44
2022/11/29 03:46:04;;;;;;;;;;;21.60;39.50;;;;;;484130;246;1255;-44
2022/11/29 03:48:06;;;;;;;;;;;21.60;39.60;;;;;;484275;246;1261;-44
2022/11/29 03:50:07;;;;;;;;;;;21.50;39.60;;;;;;484130;246;1377;-44
2022/11/29 03:52:08;;;;;;;;;;;21.60;39.60;;;;;;484501;246;2137;-44
2022/11/29 03:54:10;;;;;;;;;;;21.50;39.60;;;;;;484257;246;1281;-45
2022/11/29 03:56:11;;;;;;;;;;;21.50;39.60;;;;;;484407;246;1229;-44
2022/11/29 03:58:12;;;;;;;;;;;21.50;39.60;;;;;;484454;246;1263;-44
2022/11/29 04:00:14;;;;;;;;;;;21.50;39.70;;;;;;484063;246;1278;-44
2022/11/29 04:02:15;;;;;;;;;;;21.40;39.70;;;;;;484378;246;1644;-44
2022/11/29 04:04:16;;;;;;;;;;;21.40;39.70;;;;;;484459;246;1712;-44
2022/11/29 04:06:18;;;;;;;;;;;21.40;39.70;;;;;;484474;246;1411;-44
2022/11/29 04:08:19;;;;;;;;;;;21.40;39.80;;;;;;484482;246;1298;-44
2022/11/29 04:10:21;;;;;;;;;;;21.40;39.80;;;;;;484344;246;1299;-44
2022/11/29 04:12:22;;;;;;;;;;;21.30;39.80;;;;;;484056;246;2199;-45
2022/11/29 04:14:23;;;;;;;;;;;21.30;39.90;;;;;;484527;246;1695;-44
2022/11/29 04:16:24;;;;;;;;;;;21.30;39.90;;;;;;484156;242;1700;-44
2022/11/29 04:18:26;;;;;;;;;;;21.30;39.90;;;;;;484008;246;1258;-44
2022/11/29 04:20:27;;;;;;;;;;;21.30;39.90;;;;;;484122;246;1228;-45
2022/11/29 04:22:28;;;;;;;;;;;21.30;40.00;;;;;;484546;246;1231;-44
2022/11/29 04:24:30;;;;;;;;;;;21.30;40.00;;;;;;484637;246;1289;-45
2022/11/29 04:26:31;;;;;;;;;;;21.30;40.00;;;;;;484568;246;1190;-44
2022/11/29 04:28:32;;;;;;;;;;;21.30;39.90;;;;;;484618;246;1307;-44
2022/11/29 04:30:34;;;;;;;;;;;21.30;40.00;;;;;;484437;246;1207;-44
2022/11/29 04:32:35;;;;;;;;;;;21.30;40.00;;;;;;484625;246;2160;-44
2022/11/29 04:34:36;;;;;;;;;;;21.20;40.00;;;;;;484567;246;1385;-44
2022/11/29 04:36:38;;;;;;;;;;;21.20;40.00;;;;;;484449;246;1236;-44
2022/11/29 04:38:39;;;;;;;;;;;21.30;40.00;;;;;;484653;246;1321;-44
2022/11/29 04:40:40;;;;;;;;;;;21.20;40.00;;;;;;484364;246;1202;-44
2022/11/29 04:42:42;;;;;;;;;;;21.20;40.00;;;;;;484652;246;1135;-44
2022/11/29 04:44:43;;;;;;;;;;;21.20;40.00;;;;;;484280;246;1112;-44
2022/11/29 04:46:44;;;;;;;;;;;21.20;40.10;;;;;;484222;246;1117;-45
2022/11/29 04:48:45;;;;;;;;;;;21.20;40.10;;;;;;484416;246;1132;-44
2022/11/29 04:50:47;;;;;;;;;;;21.20;40.00;;;;;;484272;246;1141;-44
2022/11/29 04:52:48;;;;;;;;;;;21.20;40.10;;;;;;484431;246;2207;-44
2022/11/29 04:54:49;;;;;;;;;;;21.20;40.10;;;;;;484669;246;1136;-44
2022/11/29 04:56:51;;;;;;;;;;;21.20;40.00;;;;;;484266;246;1208;-44
2022/11/29 04:58:52;;;;;;;;;;;21.20;40.10;;;;;;484646;246;1118;-44
2022/11/29 05:00:53;;;;;;;;;;;21.30;40.10;;;;;;484385;246;1282;-44
2022/11/29 05:02:55;;;;;;;;;;;21.20;40.00;;;;;;484570;246;1365;-44
2022/11/29 05:04:56;;;;;;;;;;;21.20;40.10;;;;;;484643;246;1206;-45
2022/11/29 05:06:57;;;;;;;;;;;21.20;40.10;;;;;;484335;246;1513;-44
2022/11/29 05:08:59;;;;;;;;;;;21.10;40.10;;;;;;484143;246;1219;-44
2022/11/29 05:11:00;;;;;;;;;;;21.10;40.10;;;;;;484436;246;1211;-44
2022/11/29 05:13:01;;;;;;;;;;;21.10;40.10;;;;;;484514;246;2200;-44
2022/11/29 05:15:03;;;;;;;;;;;21.20;40.20;;;;;;484272;246;1528;-44
2022/11/29 05:17:04;;;;;;;;;;;21.20;40.20;;;;;;484142;246;1278;-45
2022/11/29 05:19:05;;;;;;;;;;;21.20;40.10;;;;;;484155;246;1276;-44
2022/11/29 05:21:07;;;;;;;;;;;21.20;40.10;;;;;;484378;246;1219;-44
2022/11/29 05:23:08;;;;;;;;;;;21.20;40.10;;;;;;484193;246;1373;-44
2022/11/29 05:25:09;;;;;;;;;;;21.10;40.10;;;;;;484289;246;1271;-44
2022/11/29 05:27:11;;;;;;;;;;;21.10;40.10;;;;;;484213;246;1284;-44
2022/11/29 05:29:12;;;;;;;;;;;21.10;40.20;;;;;;484393;246;1323;-44
2022/11/29 05:31:13;;;;;;;;;;;21.10;40.10;;;;;;484135;246;1269;-44
2022/11/29 05:33:14;;;;;;;;;;;21.10;40.20;;;;;;484508;246;2152;-44
2022/11/29 05:35:16;;;;;;;;;;;21.10;40.30;;;;;;484068;246;1293;-44
2022/11/29 05:37:17;;;;;;;;;;;21.10;40.30;;;;;;484073;246;1346;-44
2022/11/29 05:39:18;;;;;;;;;;;21.10;40.20;;;;;;484150;246;1311;-45
2022/11/29 05:41:20;;;;;;;;;;;21.10;40.20;;;;;;484411;246;1269;-44
2022/11/29 05:43:21;;;;;;;;;;;21.00;40.20;;;;;;484342;246;1346;-45
2022/11/29 05:45:22;;;;;;;;;;;21.10;40.30;;;;;;484509;246;1439;-44
2022/11/29 05:47:24;;;;;;;;;;;21.10;40.20;;;;;;484110;246;1386;-44
2022/11/29 05:49:25;;;;;;;;;;;21.10;40.20;;;;;;484488;246;1333;-44
2022/11/29 05:51:26;;;;;;;;;;;21.10;40.20;;;;;;484624;246;1187;-44
2022/11/29 05:53:28;;;;;;;;;;;21.00;40.20;;;;;;484051;246;2188;-44
2022/11/29 05:55:29;;;;;;;;;;;21.00;40.20;;;;;;484508;246;1224;-44
2022/11/29 05:57:31;;;;;;;;;;;21.00;40.30;;;;;;484161;246;1318;-44
2022/11/29 05:59:32;;;;;;;;;;;21.00;40.20;;;;;;484052;246;1250;-45
2022/11/29 06:01:33;;;;;;;;;;;21.10;40.30;;;;;;484094;246;1201;-44
2022/11/29 06:03:35;;;;;;;;;;;21.10;40.20;;;;;;484546;246;1290;-44
2022/11/29 06:05:36;;;;;;;;;;;21.10;40.30;;;;;;484131;246;1281;-44
2022/11/29 06:07:37;;;;;;;;;;;21.00;40.30;;;;;;484039;246;1714;-44
2022/11/29 06:09:39;;;;;;;;;;;21.10;40.30;;;;;;484350;246;1238;-44
2022/11/29 06:11:40;;;;;;;;;;;21.00;40.20;;;;;;484030;246;1221;-44
2022/11/29 06:13:42;;;;;;;;;;;21.10;40.30;;;;;;483986;246;2207;-44
2022/11/29 06:15:44;;;;;;;;;;;21.10;40.20;;;;;;484162;246;1310;-44
2022/11/29 06:17:45;;;;;;;;;;;21.10;40.20;;;;;;483979;246;1913;-44
2022/11/29 06:19:46;;;;;;;;;;;21.10;40.20;;;;;;484190;246;1554;-44
2022/11/29 06:21:48;;;;;;;;;;;21.00;40.20;;;;;;484088;246;1190;-44
2022/11/29 06:23:49;;;;;;;;;;;21.00;40.20;;;;;;483988;246;2112;-44
2022/11/29 06:25:52;;;;;;;;;;;21.00;40.20;;;;;;484340;246;1685;-44
2022/11/29 06:27:52;;;;;;;;;;;21.10;40.30;;;;;;483952;246;1820;-45
2022/11/29 06:29:53;;;;;;;;;;;21.00;40.20;;;;;;484289;246;1388;-45
2022/11/29 06:31:54;;;;;;;;;;;21.10;40.30;;;;;;484063;246;1280;-44
2022/11/29 06:33:56;;;;;;;;;;;21.00;40.20;;;;;;484386;246;2195;-44
2022/11/29 06:35:57;;;;;;;;;;;21.10;40.30;;;;;;484144;246;1271;-44
2022/11/29 06:37:58;;;;;;;;;;;21.10;40.30;;;;;;484090;246;1108;-44
2022/11/29 06:40:00;;;;;;;;;;;21.00;40.30;;;;;;484085;246;1359;-44
2022/11/29 06:42:01;;;;;;;;;;;21.00;40.30;;;;;;484227;246;1278;-44
2022/11/29 06:44:02;;;;;;;;;;;21.10;40.30;;;;;;484216;246;1110;-44
2022/11/29 06:46:04;;;;;;;;;;;21.00;40.30;;;;;;484150;246;1407;-45
2022/11/29 06:48:05;;;;;;;;;;;21.00;40.30;;;;;;484002;246;1180;-44
2022/11/29 06:50:06;;;;;;;;;;;21.00;40.30;;;;;;484225;246;1273;-44
2022/11/29 06:52:08;;;;;;;;;;;21.00;40.30;;;;;;483928;246;2196;-44
2022/11/29 06:54:09;;;;;;;;;;;21.00;40.30;;;;;;484035;246;1316;-44
2022/11/29 06:56:11;;;;;;;;;;;21.00;40.30;;;;;;484174;246;1613;-44
2022/11/29 06:58:12;;;;;;;;;;;21.00;40.40;;;;;;484234;246;1185;-44
2022/11/29 07:00:13;;;;;;;;;;;21.00;40.30;;;;;;484135;246;1267;-44
2022/11/29 07:02:14;;;;;;;;;;;21.00;40.30;;;;;;483875;246;1669;-44
2022/11/29 07:04:16;;;;;;;;;;;21.00;40.30;;;;;;484160;246;1248;-44
2022/11/29 07:06:17;;;;;;;;;;;21.00;40.30;;;;;;484154;246;1251;-44
2022/11/29 07:08:18;;;;;;;;;;;21.10;40.30;;;;;;484196;246;1617;-44
2022/11/29 07:10:20;;;;;;;;;;;21.10;40.20;;;;;;483952;246;1293;-44
2022/11/29 07:12:21;;;;;;;;;;;21.10;40.20;;;;;;484001;246;2192;-44
2022/11/29 07:14:22;;;;;;;;;;;21.00;40.20;;;;;;484051;246;1182;-44
2022/11/29 07:16:24;;;;;;;;;;;21.00;40.20;;;;;;484052;246;1248;-45
2022/11/29 07:18:25;;;;;;;;;;;21.10;40.20;;;;;;483902;246;1226;-44
2022/11/29 07:20:27;;;;;;;;;;;21.10;40.20;;;;;;483826;246;1133;-45
2022/11/29 07:22:28;;;;;;;;;;;21.00;40.10;;;;;;483739;246;1387;-45
2022/11/29 07:24:29;;;;;;;;;;;21.00;40.10;;;;;;483877;246;1284;-44
2022/11/29 07:26:31;;;;;;;;;;;21.10;40.10;;;;;;483843;246;1259;-44
2022/11/29 07:28:32;;;;;;;;;;;21.10;40.00;;;;;;483864;246;1177;-44
2022/11/29 07:30:33;;;;;;;;;;;21.00;40.00;;;;;;484137;246;1252;-44
2022/11/29 07:32:35;;;;;;;;;;;21.00;40.00;;;;;;483895;246;2188;-44
2022/11/29 07:34:36;;;;;;;;;;;21.10;40.10;;;;;;484050;246;1280;-44
2022/11/29 07:36:37;;;;;;;;;;;21.10;40.00;;;;;;483956;246;1212;-44
2022/11/29 07:38:39;;;;;;;;;;;21.00;40.00;;;;;;483904;246;1216;-44
2022/11/29 07:40:40;;;;;;;;;;;21.10;40.00;;;;;;483938;246;1212;-44
2022/11/29 07:42:41;;;;;;;;;;;21.10;40.00;;;;;;483530;246;1217;-44
2022/11/29 07:44:43;;;;;;;;;;;21.10;40.00;;;;;;483571;246;1313;-44
2022/11/29 07:46:44;;;;;;;;;;;21.10;40.00;;;;;;483461;246;1402;-44
2022/11/29 07:48:45;;;;;;;;;;;21.10;40.00;;;;;;483476;242;1223;-44
2022/11/29 07:50:47;;;;;;;;;;;21.10;40.00;;;;;;483571;246;1280;-44
2022/11/29 07:52:48;;;;;;;;;;;21.10;40.00;;;;;;483570;246;2168;-44
2022/11/29 07:54:49;;;;;;;;;;;21.00;40.00;;;;;;483189;246;1264;-44
2022/11/29 07:56:51;;;;;;;;;;;21.00;40.10;;;;;;483106;246;1393;-44
2022/11/29 07:58:52;;;;;;;;;;;21.00;40.10;;;;;;483219;246;1291;-44
2022/11/29 08:00:54;;;;;;;;;;;21.00;40.10;;;;;;483045;246;1612;-45
2022/11/29 08:02:55;;;;;;;;;;;21.00;40.10;;;;;;483275;246;1251;-44
2022/11/29 08:04:57;;;;;;;;;;;21.00;40.10;;;;;;483316;246;1684;-44
2022/11/29 08:06:58;;;;;;;;;;;21.00;40.10;;;;;;483339;246;1538;-45
2022/11/29 08:08:59;;;;;;;;;;;21.00;40.10;;;;;;483392;246;1248;-44
2022/11/29 08:11:00;;;;;;;;;;;21.00;40.10;;;;;;483524;246;1192;-44
2022/11/29 08:13:02;;;;;;;;;;;21.00;40.20;;;;;;483454;246;2187;-44
2022/11/29 08:15:03;;;;;;;;;;;21.00;40.10;;;;;;483445;246;1579;-44
2022/11/29 08:17:04;;;;;;;;;;;21.00;40.20;;;;;;483274;246;1229;-44
2022/11/29 08:19:06;;;;;;;;;;;21.00;40.20;;;;;;483475;246;1244;-44
2022/11/29 08:21:07;;;;;;;;;;;21.00;40.20;;;;;;483547;246;1364;-44
2022/11/29 08:23:08;;;;;;;;;;;21.00;40.10;;;;;;483452;246;1207;-44
2022/11/29 08:25:10;;;;;;;;;;;21.00;40.10;;;;;;483569;246;1229;-44
2022/11/29 08:27:11;;;;;;;;;;;21.00;40.10;;;;;;483628;246;1237;-44
2022/11/29 08:29:12;;;;;;;;;;;21.00;40.10;;;;;;483559;246;1274;-44
2022/11/29 08:31:14;;;;;;;;;;;21.00;40.10;;;;;;483160;246;1253;-44
2022/11/29 08:33:15;;;;;;;;;;;21.00;40.10;;;;;;483460;246;2229;-44
2022/11/29 08:35:16;;;;;;;;;;;21.00;40.10;;;;;;483526;246;1257;-44
2022/11/29 08:37:18;;;;;;;;;;;21.00;40.10;;;;;;483297;246;1228;-44
2022/11/29 08:39:19;;;;;;;;;;;21.00;40.20;;;;;;483691;246;1282;-44
2022/11/29 08:41:20;;;;;;;;;;;21.00;40.10;;;;;;483407;246;1356;-44
2022/11/29 08:43:22;;;;;;;;;;;21.00;40.10;;;;;;483376;246;1279;-45
2022/11/29 08:45:23;;;;;;;;;;;21.00;40.10;;;;;;483428;246;1270;-44
2022/11/29 08:47:37;;;;;;;;;;;21.00;40.10;;;;;;483417;246;1243;-44
2022/11/29 08:49:59;;;;;;;;;;;21.00;40.10;;;;;;483554;246;1244;-44
2022/11/29 08:51:39;;;;;;;;;;;21.10;40.00;;;;;;481752;246;1548;-44
2022/11/29 08:53:41;;;;;;;;;;;21.30;39.60;;;;;;483635;246;2183;-44
2022/11/29 08:55:45;;;;;;;;;;;21.50;39.20;;;;;;483209;246;1213;-44
2022/11/29 08:57:43;;;;;;;;;;;21.70;38.90;;;;;;483199;246;2026;-44
2022/11/29 08:59:45;;;;;;;;;;;21.80;38.60;;;;;;483408;246;1179;-45
2022/11/29 09:01:46;;;;;;;;;;;21.90;38.40;;;;;;483445;246;1181;-45
2022/11/29 09:04:01;;;;;;;;;;;22.00;38.30;;;;;;483490;246;1225;-45
2022/11/29 09:06:01;;;;;;;;;;;22.10;38.10;;;;;;483407;246;1961;-44
2022/11/29 09:08:02;;;;;;;;;;;22.20;38.00;;;;;;483451;246;1557;-44
2022/11/29 09:10:06;;;;;;;;;;;22.20;37.90;;;;;;483469;246;1251;-45
2022/11/29 09:12:07;;;;;;;;;;;22.30;37.80;;;;;;483237;246;1985;-44
2022/11/29 09:14:07;;;;;;;;;;;22.30;37.70;;;;;;483279;246;2153;-44
2022/11/29 09:16:08;;;;;;;;;;;22.40;37.70;;;;;;483438;246;1227;-44
2022/11/29 09:18:09;;;;;;;;;;;22.40;37.60;;;;;;483402;246;1298;-44
2022/11/29 09:20:11;;;;;;;;;;;22.50;37.50;;;;;;483522;246;1231;-44
2022/11/29 09:22:12;;;;;;;;;;;22.50;37.50;;;;;;483341;246;1220;-44
2022/11/29 09:24:13;;;;;;;;;;;22.60;37.40;;;;;;483609;246;1179;-45
2022/11/29 09:26:14;;;;;;;;;;;22.60;37.40;;;;;;483626;246;1396;-44
2022/11/29 09:28:16;;;;;;;;;;;22.60;37.30;;;;;;479625;246;6210;-44
2022/11/29 09:30:17;;;;;;;;;;;22.60;37.30;;;;;;477614;248;1574;-44
2022/11/29 09:32:18;;;;;;;;;;;22.60;37.20;;;;;;477711;248;1200;-45
2022/11/29 09:34:20;;;;;;;;;;;22.70;37.20;;;;;;477610;248;2195;-44
2022/11/29 09:36:21;;;;;;;;;;;22.70;37.10;;;;;;477642;248;1215;-45
2022/11/29 09:38:22;;;;;;;;;;;22.70;37.10;;;;;;477591;248;1205;-45
2022/11/29 09:40:24;;;;;;;;;;;22.80;37.10;;;;;;477546;248;1376;-44
2022/11/29 09:42:26;;;;;;;;;;;22.80;37.00;;;;;;477395;248;1294;-45
2022/11/29 09:44:27;;;;;;;;;;;22.80;37.00;;;;;;477582;248;1268;-45
2022/11/29 09:46:29;;;;;;;;;;;22.80;37.00;;;;;;477488;248;1293;-45
2022/11/29 09:48:30;;;;;;;;;;;22.90;36.90;;;;;;477479;248;1492;-44
2022/11/29 09:50:32;;;;;;;;;;;22.90;36.90;;;;;;477551;248;1266;-44
2022/11/29 09:52:33;;;;;;;;;;;22.90;36.90;;;;;;477517;248;1587;-44
2022/11/29 09:54:35;;;;;;;;;;;22.90;36.80;;;;;;477609;248;2191;-45
2022/11/29 09:56:37;;;;;;;;;;;22.90;36.80;;;;;;477467;248;1290;-45
2022/11/29 09:58:39;;;;;;;;;;;22.90;36.80;;;;;;477536;248;1284;-45
2022/11/29 10:00:39;;;;;;;;;;;23.00;36.80;;;;;;477612;248;1914;-44
2022/11/29 10:02:44;;;;;;;;;;;23.00;36.80;;;;;;477599;248;1594;-45
2022/11/29 10:04:42;;;;;;;;;;;23.00;36.80;;;;;;477457;249;1763;-44
2022/11/29 10:06:44;;;;;;;;;;;23.00;36.70;;;;;;477558;248;1413;-44
2022/11/29 10:08:45;;;;;;;;;;;23.00;36.70;;;;;;477506;248;1392;-44
2022/11/29 10:10:46;;;;;;;;;;;23.00;36.70;;;;;;477143;248;1306;-44
2022/11/29 10:12:48;;;;;;;;;;;23.10;36.70;;;;;;477161;248;1284;-44
2022/11/29 10:14:49;;;;;;;;;;;23.10;36.70;;;;;;477461;248;2210;-45
2022/11/29 10:16:50;;;;;;;;;;;23.10;36.70;;;;;;477225;248;1382;-44
2022/11/29 10:18:52;;;;;;;;;;;23.10;36.60;;;;;;477343;248;1334;-44
2022/11/29 10:20:53;;;;;;;;;;;23.10;36.60;;;;;;477467;248;1234;-44
2022/11/29 10:22:54;;;;;;;;;;;23.20;36.60;;;;;;477354;248;1666;-44
2022/11/29 10:24:56;;;;;;;;;;;23.20;36.60;;;;;;477227;248;1349;-44
2022/11/29 10:26:57;;;;;;;;;;;23.20;36.60;;;;;;477149;248;1236;-44
2022/11/29 10:28:58;;;;;;;;;;;23.20;36.50;;;;;;477379;248;1396;-44
2022/11/29 10:31:00;;;;;;;;;;;23.20;36.50;;;;;;477425;248;1221;-44
2022/11/29 10:33:01;;;;;;;;;;;23.20;36.50;;;;;;477291;248;1209;-44
2022/11/29 10:35:02;;;;;;;;;;;23.20;36.50;;;;;;477273;248;2163;-44
2022/11/29 10:37:04;;;;;;;;;;;23.20;36.40;;;;;;477266;248;1197;-44
2022/11/29 10:39:05;;;;;;;;;;;23.30;36.50;;;;;;477270;248;1435;-44
2022/11/29 10:41:06;;;;;;;;;;;23.30;36.40;;;;;;477334;248;1243;-45
2022/11/29 10:43:08;;;;;;;;;;;23.30;36.40;;;;;;477462;248;1722;-44
2022/11/29 10:45:09;;;;;;;;;;;23.30;36.40;;;;;;477694;248;1319;-44
2022/11/29 10:47:10;;;;;;;;;;;23.30;36.50;;;;;;477703;248;1355;-44
2022/11/29 10:49:11;;;;;;;;;;;23.30;36.50;;;;;;477628;248;1255;-44
2022/11/29 10:51:13;;;;;;;;;;;23.30;36.40;;;;;;477352;248;1494;-44
2022/11/29 10:53:14;;;;;;;;;;;23.30;36.30;;;;;;477548;248;1306;-45
2022/11/29 10:55:15;;;;;;;;;;;23.30;36.40;;;;;;477460;248;2199;-44
2022/11/29 10:57:17;;;;;;;;;;;23.30;36.40;;;;;;477667;248;1301;-44
2022/11/29 10:59:18;;;;;;;;;;;23.30;36.30;;;;;;477435;248;1225;-44
2022/11/29 11:01:19;;;;;;;;;;;23.40;36.30;;;;;;477534;248;1588;-44
2022/11/29 11:03:21;;;;;;;;;;;23.40;36.30;;;;;;477634;248;1219;-45
2022/11/29 11:05:22;;;;;;;;;;;23.40;36.30;;;;;;477490;248;1374;-45
2022/11/29 11:07:23;;;;;;;;;;;23.40;36.30;;;;;;477515;248;1365;-44
2022/11/29 11:09:25;;;;;;;;;;;23.40;36.30;;;;;;477523;248;1275;-45
2022/11/29 11:11:26;;;;;;;;;;;23.40;36.30;;;;;;477813;248;1203;-45
2022/11/29 11:13:27;;;;;;;;;;;23.40;36.30;;;;;;477716;248;1290;-45
2022/11/29 11:15:29;;;;;;;;;;;23.50;36.30;;;;;;477717;248;2199;-45
2022/11/29 11:17:31;;;;;;;;;;;23.40;36.20;;;;;;477620;248;1326;-45
2022/11/29 11:19:31;;;;;;;;;;;23.50;36.30;;;;;;477779;249;1924;-44
2022/11/29 11:21:33;;;;;;;;;;;23.50;36.30;;;;;;477778;248;1254;-44
2022/11/29 11:23:35;;;;;;;;;;;23.40;36.30;;;;;;477780;248;1222;-44
2022/11/29 11:25:35;;;;;;;;;;;23.40;36.40;;;;;;477643;248;1945;-44
2022/11/29 11:27:38;;;;;;;;;;;23.30;36.50;;;;;;477725;248;1396;-44
2022/11/29 11:29:38;;;;;;;;;;;23.10;36.90;;;;;;477838;248;2038;-44
2022/11/29 11:31:39;;;;;;;;;;;22.90;37.20;;;;;;477909;248;2025;-44
2022/11/29 11:33:41;;;;;;;;;;;22.70;37.60;;;;;;477874;248;1296;-44
2022/11/29 11:35:42;;;;;;;;;;;22.50;37.80;;;;;;477771;248;2123;-44
2022/11/29 11:37:43;;;;;;;;;;;22.50;38.00;;;;;;477653;248;1425;-44
2022/11/29 11:39:45;;;;;;;;;;;22.40;38.20;;;;;;477717;248;1276;-44
2022/11/29 11:44:05;;;;;;;;;;;22.20;38.40;;;;;;477692;249;1256;-44
2022/11/29 11:46:07;;;;;;;;;;;22.20;38.50;;;;;;477668;248;1258;-45
2022/11/29 11:48:08;;;;;;;;;;;22.10;38.60;;;;;;477820;248;1308;-44
2022/11/29 11:50:10;;;;;;;;;;;22.10;38.70;;;;;;477530;248;1272;-44
2022/11/29 11:52:11;;;;;;;;;;;22.00;38.80;;;;;;477490;248;1377;-44
2022/11/29 11:54:12;;;;;;;;;;;22.00;38.90;;;;;;477645;248;2198;-44
2022/11/29 11:56:13;;;;;;;;;;;22.00;39.00;;;;;;477593;248;1382;-45
2022/11/29 11:58:15;;;;;;;;;;;21.90;38.90;;;;;;477563;248;1444;-44
2022/11/29 12:00:16;;;;;;;;;;;21.90;38.90;;;;;;477661;248;1310;-45
2022/11/29 12:02:17;;;;;;;;;;;22.00;39.00;;;;;;477729;248;1689;-44